Time;durP1;ratioP1;P1;durP2;ratioP2;P2;SDS_P1;SDS_P2;PMS_P1;PMS_P2;Temp;Humidity;BMP_temperature;BMP_pressure;BME280_temperature;BME280_humidity;BME280_pressure;Samples;Min_cycle;Max_cycle;Signal;HPM_P1;HPM_P2
2022/03/20 00:00:15;;;;;;;6.13;2.75;;;;;;;;;;5069119;28;20056;-64
2022/03/20 00:02:42;;;;;;;6.82;2.70;;;;;;;;;;5068778;28;20602;-64
2022/03/20 00:05:08;;;;;;;5.68;2.55;;;;;;;;;;5068807;28;20546;-64
2022/03/20 00:07:35;;;;;;;7.32;2.88;;;;;;;;;;5068986;28;20053;-63
2022/03/20 00:10:03;;;;;;;6.20;2.80;;;;;;;;;;5068896;28;20190;-64
2022/03/20 00:12:29;;;;;;;7.45;3.33;;;;;;;;;;5068114;28;20495;-63
2022/03/20 00:14:55;;;;;;;6.90;3.03;;;;;;;;;;5069123;28;20053;-64
2022/03/20 00:17:22;;;;;;;8.43;3.50;;;;;;;;;;5068607;28;20606;-63
2022/03/20 00:19:48;;;;;;;7.65;3.70;;;;;;;;;;5068835;28;20051;-64
2022/03/20 00:22:15;;;;;;;9.98;3.42;;;;;;;;;;5068487;28;20061;-67
2022/03/20 00:24:43;;;;;;;6.07;3.03;;;;;;;;;;5067755;28;20061;-65
2022/03/20 00:27:11;;;;;;;12.18;3.75;;;;;;;;;;5068800;28;20059;-66
2022/03/20 00:29:37;;;;;;;8.05;4.05;;;;;;;;;;5068644;28;20057;-65
2022/03/20 00:32:05;;;;;;;9.88;3.50;;;;;;;;;;5068775;28;20059;-65
2022/03/20 00:34:31;;;;;;;10.77;3.70;;;;;;;;;;5068436;28;20577;-64
2022/03/20 00:36:58;;;;;;;9.15;4.40;;;;;;;;;;5067478;28;20053;-64
2022/03/20 00:39:24;;;;;;;7.82;3.58;;;;;;;;;;5068362;28;20059;-63
2022/03/20 00:41:50;;;;;;;8.50;4.18;;;;;;;;;;5068508;28;20071;-63
2022/03/20 00:44:17;;;;;;;9.38;4.68;;;;;;;;;;5068026;28;20057;-63
2022/03/20 00:46:43;;;;;;;15.43;5.50;;;;;;;;;;5068823;28;20071;-64
2022/03/20 00:49:10;;;;;;;10.45;4.95;;;;;;;;;;5067962;28;20532;-63
2022/03/20 00:51:36;;;;;;;11.55;4.93;;;;;;;;;;5068099;28;20067;-62
2022/03/20 00:54:03;;;;;;;12.68;4.68;;;;;;;;;;5068294;28;20080;-64
2022/03/20 00:56:29;;;;;;;9.85;4.50;;;;;;;;;;5068155;28;20056;-63
2022/03/20 00:58:55;;;;;;;13.00;6.22;;;;;;;;;;5067397;28;20051;-62
2022/03/20 01:01:22;;;;;;;9.80;5.22;;;;;;;;;;5067123;28;20077;-63
2022/03/20 01:03:48;;;;;;;14.73;5.65;;;;;;;;;;5067952;28;20053;-63
2022/03/20 01:06:17;;;;;;;10.02;5.47;;;;;;;;;;5068301;28;20061;-63
2022/03/20 01:08:43;;;;;;;11.60;5.40;;;;;;;;;;5068510;28;20136;-63
2022/03/20 01:11:10;;;;;;;9.85;4.95;;;;;;;;;;5067690;28;20045;-63
2022/03/20 01:13:36;;;;;;;13.75;6.18;;;;;;;;;;5067709;28;20055;-63
2022/03/20 01:16:04;;;;;;;15.18;6.38;;;;;;;;;;5067764;28;20067;-64
2022/03/20 01:18:30;;;;;;;11.18;5.72;;;;;;;;;;5067374;28;20139;-63
2022/03/20 01:20:56;;;;;;;14.75;6.43;;;;;;;;;;5067291;28;20053;-63
2022/03/20 01:23:23;;;;;;;12.02;5.97;;;;;;;;;;5067223;28;20067;-63
2022/03/20 01:25:50;;;;;;;10.68;5.53;;;;;;;;;;5067477;28;20147;-63
2022/03/20 01:28:17;;;;;;;16.25;6.75;;;;;;;;;;5067889;28;20048;-63
2022/03/20 01:30:44;;;;;;;13.68;6.40;;;;;;;;;;5067572;28;20067;-64
2022/03/20 01:33:11;;;;;;;13.07;5.88;;;;;;;;;;5067353;28;20103;-63
2022/03/20 01:35:37;;;;;;;10.98;6.03;;;;;;;;;;5067567;28;20084;-63
2022/03/20 01:38:07;;;;;;;15.90;6.88;;;;;;;;;;5068207;28;20099;-63
2022/03/20 01:40:33;;;;;;;12.77;5.95;;;;;;;;;;5068108;28;20055;-63
2022/03/20 01:43:01;;;;;;;13.48;6.40;;;;;;;;;;5067379;28;20172;-63
2022/03/20 01:45:27;;;;;;;11.43;6.80;;;;;;;;;;5067174;28;20053;-63
2022/03/20 01:47:53;;;;;;;15.35;6.05;;;;;;;;;;5067608;28;20053;-63
2022/03/20 01:50:22;;;;;;;15.18;6.30;;;;;;;;;;5066600;28;20056;-63
2022/03/20 01:52:49;;;;;;;13.75;5.85;;;;;;;;;;5067306;28;20609;-63
2022/03/20 01:55:16;;;;;;;14.45;5.63;;;;;;;;;;5066856;28;20057;-63
2022/03/20 01:57:44;;;;;;;13.27;5.78;;;;;;;;;;5066964;28;20063;-63
2022/03/20 02:00:11;;;;;;;15.65;6.10;;;;;;;;;;5066951;28;20128;-63
2022/03/20 02:02:38;;;;;;;14.55;5.88;;;;;;;;;;5069511;28;20091;-63
2022/03/20 02:05:09;;;;;;;11.98;5.75;;;;;;;;;;5070759;28;20111;-63
2022/03/20 02:07:36;;;;;;;13.20;5.85;;;;;;;;;;5071296;28;20195;-64
2022/03/20 02:10:03;;;;;;;10.15;5.70;;;;;;;;;;5070485;28;20140;-64
2022/03/20 02:12:30;;;;;;;11.48;5.38;;;;;;;;;;5070724;28;20060;-63
2022/03/20 02:14:56;;;;;;;12.80;5.53;;;;;;;;;;5069856;28;20049;-63
2022/03/20 02:17:23;;;;;;;10.70;5.50;;;;;;;;;;5070320;28;20057;-63
2022/03/20 02:19:49;;;;;;;12.63;5.82;;;;;;;;;;5070480;28;20079;-63
2022/03/20 02:22:15;;;;;;;13.68;6.18;;;;;;;;;;5070494;28;20057;-63
2022/03/20 02:24:44;;;;;;;12.88;5.10;;;;;;;;;;5070310;28;20056;-63
2022/03/20 02:27:15;;;;;;;11.00;4.45;;;;;;;;;;5070490;28;20656;-63
2022/03/20 02:29:42;;;;;;;11.77;4.43;;;;;;;;;;5071180;28;20064;-63
2022/03/20 02:32:09;;;;;;;11.13;5.10;;;;;;;;;;5070124;28;20049;-63
2022/03/20 02:34:36;;;;;;;8.10;4.17;;;;;;;;;;5070098;28;20073;-63
2022/03/20 02:37:03;;;;;;;12.82;4.50;;;;;;;;;;5070667;28;20045;-63
2022/03/20 02:39:29;;;;;;;8.18;4.32;;;;;;;;;;5069139;28;20504;-63
2022/03/20 02:41:57;;;;;;;9.45;4.25;;;;;;;;;;5070312;28;20136;-63
2022/03/20 02:44:42;;;;;;;11.27;5.00;;;;;;;;;;5070573;28;20140;-63
2022/03/20 02:47:08;;;;;;;11.75;4.90;;;;;;;;;;5070181;28;20053;-63
2022/03/20 02:49:37;;;;;;;9.50;4.43;;;;;;;;;;5069881;28;20064;-65
2022/03/20 02:52:03;;;;;;;13.65;5.35;;;;;;;;;;5070491;28;20053;-63
2022/03/20 02:54:29;;;;;;;11.73;4.85;;;;;;;;;;5069917;28;20143;-63
2022/03/20 02:56:56;;;;;;;9.32;4.88;;;;;;;;;;5070497;28;20151;-63
2022/03/20 02:59:22;;;;;;;11.70;5.30;;;;;;;;;;5069919;28;20071;-63
2022/03/20 03:01:49;;;;;;;13.00;5.63;;;;;;;;;;5068657;28;20059;-63
2022/03/20 03:04:17;;;;;;;16.90;6.10;;;;;;;;;;5069384;28;20057;-63
2022/03/20 03:06:43;;;;;;;12.27;5.90;;;;;;;;;;5069698;28;20056;-63
2022/03/20 03:11:54;;;;;;;12.52;5.68;;;;;;;;;;5069012;28;20049;-63
2022/03/20 03:17:06;;;;;;;16.05;5.80;;;;;;;;;;5069569;28;20056;-63
2022/03/20 03:19:32;;;;;;;11.43;5.80;;;;;;;;;;5069837;28;20053;-63
2022/03/20 03:22:01;;;;;;;14.55;6.72;;;;;;;;;;5069974;28;20057;-63
2022/03/20 03:24:27;;;;;;;13.85;6.07;;;;;;;;;;5069243;28;20140;-63
2022/03/20 03:26:53;;;;;;;13.60;6.03;;;;;;;;;;5070028;28;20044;-63
2022/03/20 03:29:19;;;;;;;15.73;6.75;;;;;;;;;;5068476;28;20144;-63
2022/03/20 03:31:46;;;;;;;16.92;6.30;;;;;;;;;;5069002;28;20075;-63
2022/03/20 03:36:57;;;;;;;15.23;6.38;;;;;;;;;;5069446;28;20585;-63
2022/03/20 03:39:23;;;;;;;15.60;6.85;;;;;;;;;;5069423;28;20524;-64
2022/03/20 03:41:51;;;;;;;14.48;6.22;;;;;;;;;;5069094;28;20511;-63
2022/03/20 03:44:18;;;;;;;13.77;5.60;;;;;;;;;;5069390;28;20052;-62
2022/03/20 03:46:45;;;;;;;16.70;7.90;;;;;;;;;;5069513;28;20056;-63
2022/03/20 03:49:12;;;;;;;13.80;6.45;;;;;;;;;;5069401;28;20057;-63
2022/03/20 03:51:38;;;;;;;17.85;6.63;;;;;;;;;;5069654;28;20057;-63
2022/03/20 03:54:04;;;;;;;14.30;7.07;;;;;;;;;;5068718;28;20558;-63
2022/03/20 03:56:31;;;;;;;14.43;6.90;;;;;;;;;;5069139;28;20053;-63
2022/03/20 03:58:57;;;;;;;16.73;6.95;;;;;;;;;;5068572;28;20063;-63
2022/03/20 04:01:24;;;;;;;17.02;7.40;;;;;;;;;;5068940;28;20059;-63
2022/03/20 04:03:50;;;;;;;14.68;7.03;;;;;;;;;;5069195;28;20144;-63
2022/03/20 04:06:16;;;;;;;12.43;6.10;;;;;;;;;;5069069;28;20080;-63
2022/03/20 04:08:43;;;;;;;12.23;6.53;;;;;;;;;;5069731;28;20139;-63
2022/03/20 04:11:09;;;;;;;16.77;7.13;;;;;;;;;;5068100;28;20041;-62
2022/03/20 04:13:35;;;;;;;15.93;7.05;;;;;;;;;;5068663;28;20533;-63
2022/03/20 04:16:02;;;;;;;15.15;6.90;;;;;;;;;;5068535;28;20584;-63
2022/03/20 04:18:29;;;;;;;21.95;7.75;;;;;;;;;;5068413;28;20049;-63
2022/03/20 04:20:55;;;;;;;13.80;7.13;;;;;;;;;;5068227;28;20045;-63
2022/03/20 04:26:06;;;;;;;17.52;8.05;;;;;;;;;;5067114;28;20059;-63
2022/03/20 04:28:33;;;;;;;18.33;7.20;;;;;;;;;;5067167;28;20420;-64
2022/03/20 04:30:59;;;;;;;16.80;7.20;;;;;;;;;;5068896;28;20053;-63
2022/03/20 04:33:27;;;;;;;16.25;7.47;;;;;;;;;;5069034;28;20053;-63
2022/03/20 04:35:53;;;;;;;16.83;7.67;;;;;;;;;;5068281;28;20053;-63
2022/03/20 04:38:21;;;;;;;18.63;8.48;;;;;;;;;;5068420;28;20053;-63
2022/03/20 04:40:48;;;;;;;17.98;7.78;;;;;;;;;;5068289;28;20503;-63
2022/03/20 04:43:17;;;;;;;18.13;7.53;;;;;;;;;;5067247;28;20060;-63
2022/03/20 04:45:44;;;;;;;16.77;8.10;;;;;;;;;;5068489;28;20139;-63
2022/03/20 04:59:10;;;;;;;13.82;7.32;;;;;;;;;;5068459;28;20059;-63
2022/03/20 05:01:37;;;;;;;15.50;8.20;;;;;;;;;;5068653;28;20811;-63
2022/03/20 05:04:04;;;;;;;13.87;7.03;;;;;;;;;;5067822;28;20199;-63
2022/03/20 05:06:30;;;;;;;16.92;8.60;;;;;;;;;;5068159;28;20742;-63
2022/03/20 05:13:19;;;;;;;17.80;8.10;;;;;;;;;;5067126;28;20063;-63
2022/03/20 05:14:28;;;;;;;13.18;7.38;;;;;;;;;;5067956;28;20882;-63
2022/03/20 05:17:03;;;;;;;15.80;8.73;;;;;;;;;;5067855;28;20057;-63
2022/03/20 05:19:29;;;;;;;;;;;;;;;;;;5068564;28;20140;-62
2022/03/20 05:21:56;;;;;;;16.88;8.65;;;;;;;;;;5067887;28;45641;-63
2022/03/20 05:24:22;;;;;;;20.75;8.98;;;;;;;;;;5067191;28;20057;-64
2022/03/20 05:26:48;;;;;;;20.67;8.95;;;;;;;;;;5067968;28;20052;-63
2022/03/20 05:29:14;;;;;;;17.40;9.23;;;;;;;;;;5068055;28;20088;-63
2022/03/20 05:31:41;;;;;;;20.45;9.27;;;;;;;;;;5067400;28;20148;-63
2022/03/20 05:34:07;;;;;;;17.25;8.75;;;;;;;;;;5066801;28;20167;-63
2022/03/20 05:36:34;;;;;;;17.70;9.15;;;;;;;;;;5068236;28;20613;-63
2022/03/20 05:39:01;;;;;;;21.85;9.27;;;;;;;;;;5068279;28;20084;-63
2022/03/20 05:41:47;;;;;;;20.02;9.30;;;;;;;;;;5066128;28;20481;-63
2022/03/20 05:44:13;;;;;;;18.00;8.52;;;;;;;;;;5067557;28;20067;-63
2022/03/20 05:46:40;;;;;;;22.05;9.38;;;;;;;;;;5067528;28;20574;-63
2022/03/20 05:49:06;;;;;;;18.60;9.27;;;;;;;;;;5067059;28;20045;-63
2022/03/20 05:51:34;;;;;;;16.45;8.50;;;;;;;;;;5067327;28;20049;-63
2022/03/20 05:54:01;;;;;;;20.60;10.27;;;;;;;;;;5067328;28;20055;-63
2022/03/20 05:59:12;;;;;;;18.92;9.93;;;;;;;;;;5065801;28;20051;-62
2022/03/20 06:01:39;;;;;;;22.02;8.68;;;;;;;;;;5067338;28;20104;-62
2022/03/20 06:04:06;;;;;;;20.88;8.98;;;;;;;;;;5067217;28;20063;-62
2022/03/20 06:06:32;;;;;;;29.38;10.18;;;;;;;;;;5067490;28;20111;-62
2022/03/20 06:08:58;;;;;;;21.85;10.30;;;;;;;;;;5066545;28;20506;-62
2022/03/20 06:11:25;;;;;;;21.13;10.32;;;;;;;;;;5066839;28;20494;-62
2022/03/20 06:13:51;;;;;;;17.75;8.45;;;;;;;;;;5067025;28;20100;-62
2022/03/20 06:16:18;;;;;;;17.98;10.02;;;;;;;;;;5066746;28;20052;-62
2022/03/20 06:18:44;;;;;;;24.98;10.30;;;;;;;;;;5066797;28;20060;-62
2022/03/20 06:21:11;;;;;;;20.17;10.50;;;;;;;;;;5067591;28;20048;-62
2022/03/20 06:23:40;;;;;;;20.70;9.77;;;;;;;;;;5066579;28;20080;-63
2022/03/20 06:26:07;;;;;;;18.15;8.48;;;;;;;;;;5067157;28;20059;-63
2022/03/20 06:28:33;;;;;;;20.70;10.15;;;;;;;;;;5066586;28;20060;-63
2022/03/20 06:31:03;;;;;;;18.80;9.05;;;;;;;;;;5066811;28;20065;-62
2022/03/20 06:33:49;;;;;;;19.10;9.77;;;;;;;;;;5067357;28;20191;-63
2022/03/20 06:36:15;;;;;;;19.45;9.77;;;;;;;;;;5066847;28;20438;-63
2022/03/20 06:38:42;;;;;;;17.55;9.13;;;;;;;;;;5066841;28;20063;-63
2022/03/20 06:41:08;;;;;;;18.98;9.70;;;;;;;;;;5066638;28;20173;-62
2022/03/20 06:43:36;;;;;;;20.13;9.80;;;;;;;;;;5066545;28;20053;-62
2022/03/20 06:46:03;;;;;;;21.20;10.40;;;;;;;;;;5066603;28;20057;-62
2022/03/20 06:48:50;;;;;;;19.25;8.88;;;;;;;;;;5068324;28;20056;-62
2022/03/20 06:51:17;;;;;;;19.38;8.70;;;;;;;;;;5069891;28;20499;-62
2022/03/20 06:53:43;;;;;;;18.40;9.50;;;;;;;;;;5069874;28;20107;-62
2022/03/20 06:56:09;;;;;;;18.80;9.43;;;;;;;;;;5070022;28;20064;-63
2022/03/20 06:58:35;;;;;;;17.85;8.93;;;;;;;;;;5070776;28;20056;-63
2022/03/20 07:01:02;;;;;;;20.90;10.00;;;;;;;;;;5070505;28;20828;-63
2022/03/20 07:03:28;;;;;;;22.30;9.73;;;;;;;;;;5070050;28;20421;-63
2022/03/20 07:05:55;;;;;;;20.67;10.68;;;;;;;;;;5070103;28;20092;-63
2022/03/20 07:08:21;;;;;;;24.50;10.50;;;;;;;;;;5069833;28;20537;-63
2022/03/20 07:10:48;;;;;;;19.70;10.13;;;;;;;;;;5070124;28;20060;-63
2022/03/20 07:16:00;;;;;;;17.75;9.27;;;;;;;;;;5070190;28;20059;-63
2022/03/20 07:18:27;;;;;;;22.65;10.23;;;;;;;;;;5069633;28;20061;-63
2022/03/20 07:20:55;;;;;;;18.63;9.88;;;;;;;;;;5069626;28;20063;-63
2022/03/20 07:23:22;;;;;;;20.95;10.65;;;;;;;;;;5069587;28;20511;-63
2022/03/20 07:31:18;;;;;;;21.55;9.93;;;;;;;;;;5068437;28;20057;-63
2022/03/20 07:33:44;;;;;;;19.27;10.07;;;;;;;;;;5069347;28;20049;-62
2022/03/20 07:36:11;;;;;;;19.70;10.43;;;;;;;;;;5069682;28;20505;-63
2022/03/20 07:38:37;;;;;;;21.52;10.70;;;;;;;;;;5069281;28;20848;-63
2022/03/20 07:41:04;;;;;;;19.92;9.65;;;;;;;;;;5069476;28;20570;-63
2022/03/20 07:43:30;;;;;;;18.88;9.98;;;;;;;;;;5069313;28;20194;-63
2022/03/20 07:45:57;;;;;;;22.42;10.55;;;;;;;;;;5069222;28;20060;-63
2022/03/20 07:48:23;;;;;;;16.30;8.35;;;;;;;;;;5069289;28;20053;-63
2022/03/20 07:50:50;;;;;;;17.80;9.40;;;;;;;;;;5069675;28;20153;-64
2022/03/20 07:53:17;;;;;;;22.80;10.77;;;;;;;;;;5069702;28;20053;-63
2022/03/20 07:55:44;;;;;;;17.75;9.48;;;;;;;;;;5069079;28;20151;-63
2022/03/20 07:58:10;;;;;;;18.58;9.25;;;;;;;;;;5068825;28;20061;-63
2022/03/20 08:00:39;;;;;;;26.15;11.60;;;;;;;;;;5068056;28;20055;-63
2022/03/20 08:03:06;;;;;;;19.90;10.02;;;;;;;;;;5068139;28;20103;-63
2022/03/20 08:05:33;;;;;;;19.88;10.73;;;;;;;;;;5068542;28;20440;-63
2022/03/20 08:08:02;;;;;;;24.50;11.27;;;;;;;;;;5069425;28;20147;-63
2022/03/20 08:10:29;;;;;;;20.55;11.65;;;;;;;;;;5069147;28;20057;-63
2022/03/20 08:12:55;;;;;;;25.20;11.50;;;;;;;;;;5068691;28;20430;-63
2022/03/20 08:15:23;;;;;;;17.80;9.80;;;;;;;;;;5069042;28;20045;-63
2022/03/20 08:17:50;;;;;;;16.63;9.50;;;;;;;;;;5068769;28;20527;-63
2022/03/20 08:20:17;;;;;;;20.65;9.02;;;;;;;;;;5068099;28;20084;-63
2022/03/20 08:22:43;;;;;;;21.73;11.15;;;;;;;;;;5068701;28;20053;-63
2022/03/20 08:25:11;;;;;;;21.83;9.07;;;;;;;;;;5068415;28;20140;-63
2022/03/20 08:27:43;;;;;;;19.23;9.63;;;;;;;;;;5067862;28;20045;-63
2022/03/20 08:30:11;;;;;;;22.83;11.02;;;;;;;;;;5068274;28;20061;-63
2022/03/20 08:32:38;;;;;;;19.83;9.50;;;;;;;;;;5068158;28;20091;-63
2022/03/20 08:35:04;;;;;;;24.73;11.10;;;;;;;;;;5068740;28;20056;-62
2022/03/20 08:37:32;;;;;;;23.75;11.40;;;;;;;;;;5068518;28;20064;-63
2022/03/20 08:39:58;;;;;;;22.15;10.95;;;;;;;;;;5068269;28;20049;-63
2022/03/20 08:42:24;;;;;;;20.50;10.20;;;;;;;;;;5068490;28;20507;-63
2022/03/20 08:44:52;;;;;;;26.45;11.93;;;;;;;;;;5067831;28;20148;-63
2022/03/20 08:47:19;;;;;;;20.02;9.50;;;;;;;;;;5068330;28;20139;-65
2022/03/20 08:49:46;;;;;;;21.33;11.25;;;;;;;;;;5068333;28;20131;-64
2022/03/20 08:52:12;;;;;;;29.70;12.45;;;;;;;;;;5067651;28;20044;-64
2022/03/20 08:54:38;;;;;;;22.08;11.75;;;;;;;;;;5067770;28;20169;-64
2022/03/20 08:57:06;;;;;;;20.42;10.85;;;;;;;;;;5068443;28;20061;-63
2022/03/20 08:59:32;;;;;;;22.38;11.63;;;;;;;;;;5067744;28;20059;-64
2022/03/20 09:01:59;;;;;;;23.30;11.10;;;;;;;;;;5068534;28;20049;-64
2022/03/20 09:04:25;;;;;;;26.67;12.35;;;;;;;;;;5068018;28;20084;-64
2022/03/20 09:06:51;;;;;;;23.60;12.32;;;;;;;;;;5067816;28;20059;-63
2022/03/20 09:09:18;;;;;;;26.23;12.88;;;;;;;;;;5068362;28;20143;-64
2022/03/20 09:11:45;;;;;;;22.08;11.02;;;;;;;;;;5067517;28;20057;-64
2022/03/20 09:14:11;;;;;;;20.85;11.90;;;;;;;;;;5067733;28;20053;-64
2022/03/20 09:19:27;;;;;;;26.98;11.13;;;;;;;;;;5047831;28;20051;-64
2022/03/20 09:21:53;;;;;;;26.95;13.50;;;;;;;;;;5068303;28;20077;-64
2022/03/20 09:24:19;;;;;;;23.55;12.27;;;;;;;;;;5068286;28;20143;-64
2022/03/20 09:26:46;;;;;;;22.15;12.27;;;;;;;;;;5067587;28;20084;-64
2022/03/20 09:29:14;;;;;;;22.00;12.10;;;;;;;;;;5067395;28;20864;-64
2022/03/20 09:31:40;;;;;;;20.55;11.55;;;;;;;;;;5067521;28;20056;-64
2022/03/20 09:34:08;;;;;;;25.67;13.30;;;;;;;;;;5066833;28;20492;-64
2022/03/20 09:36:36;;;;;;;25.83;12.65;;;;;;;;;;5068328;28;20060;-63
2022/03/20 09:39:03;;;;;;;26.63;12.10;;;;;;;;;;5067415;28;20063;-64
2022/03/20 09:41:32;;;;;;;26.05;12.25;;;;;;;;;;5066587;28;20049;-63
2022/03/20 09:44:02;;;;;;;30.23;14.27;;;;;;;;;;5067438;28;20580;-64
2022/03/20 09:46:30;;;;;;;23.70;12.43;;;;;;;;;;5066920;28;20055;-64
2022/03/20 09:48:57;;;;;;;24.42;12.35;;;;;;;;;;5067459;28;20087;-64
2022/03/20 09:51:24;;;;;;;26.38;12.73;;;;;;;;;;5067274;28;20064;-64
2022/03/20 09:53:50;;;;;;;26.27;12.05;;;;;;;;;;5067705;28;20056;-64
2022/03/20 09:56:16;;;;;;;25.67;11.60;;;;;;;;;;5067524;28;20049;-64
2022/03/20 09:58:43;;;;;;;23.13;12.80;;;;;;;;;;5067117;28;20107;-64
2022/03/20 10:01:09;;;;;;;22.23;12.38;;;;;;;;;;5067318;28;20059;-64
2022/03/20 10:03:36;;;;;;;27.55;13.95;;;;;;;;;;5067221;28;20057;-64
2022/03/20 10:06:16;;;;;;;25.92;12.68;;;;;;;;;;5066551;28;20111;-64
2022/03/20 10:08:54;;;;;;;27.48;13.80;;;;;;;;;;5067110;28;20155;-64
2022/03/20 10:11:21;;;;;;;25.02;13.13;;;;;;;;;;5067146;28;20513;-64
2022/03/20 10:14:07;;;;;;;22.85;12.65;;;;;;;;;;5066855;28;20156;-65
2022/03/20 10:16:38;;;;;;;25.23;13.15;;;;;;;;;;5066856;28;20148;-64
2022/03/20 10:19:23;;;;;;;28.20;13.43;;;;;;;;;;5067246;28;20934;-64
2022/03/20 10:21:55;;;;;;;24.85;13.13;;;;;;;;;;5067071;28;20215;-64
2022/03/20 10:24:22;;;;;;;23.42;12.95;;;;;;;;;;5069883;28;20057;-64
2022/03/20 10:27:02;;;;;;;26.48;13.52;;;;;;;;;;5071158;28;20140;-64
2022/03/20 10:29:29;;;;;;;23.58;13.27;;;;;;;;;;5070919;28;20060;-64
2022/03/20 10:31:56;;;;;;;27.90;12.82;;;;;;;;;;5069468;28;20088;-64
2022/03/20 10:34:26;;;;;;;28.13;14.00;;;;;;;;;;5069971;28;20083;-64
2022/03/20 10:36:52;;;;;;;25.00;13.02;;;;;;;;;;5070192;28;20045;-64
2022/03/20 10:39:19;;;;;;;22.42;10.60;;;;;;;;;;5070135;28;20056;-64
2022/03/20 10:41:52;;;;;;;26.05;13.88;;;;;;;;;;5070626;28;20049;-64
2022/03/20 10:44:31;;;;;;;25.52;13.85;;;;;;;;;;5069764;28;20064;-64
2022/03/20 10:47:04;;;;;;;20.33;11.05;;;;;;;;;;5070464;28;20083;-62
2022/03/20 10:49:31;;;;;;;26.08;13.05;;;;;;;;;;5070516;28;20040;-64
2022/03/20 10:52:05;;;;;;;24.50;13.73;;;;;;;;;;5070449;28;20140;-64
2022/03/20 10:54:40;;;;;;;27.40;12.73;;;;;;;;;;5069914;28;20152;-64
2022/03/20 10:57:08;;;;;;;21.85;11.32;;;;;;;;;;5069177;28;20053;-64
2022/03/20 10:59:34;;;;;;;24.65;13.90;;;;;;;;;;5069900;28;20061;-64
2022/03/20 11:02:02;;;;;;;34.22;14.57;;;;;;;;;;5070200;28;20499;-64
2022/03/20 11:04:28;;;;;;;24.52;13.25;;;;;;;;;;5069591;28;20060;-64
2022/03/20 11:06:55;;;;;;;26.10;13.63;;;;;;;;;;5069792;28;20053;-63
2022/03/20 11:09:21;;;;;;;28.08;14.05;;;;;;;;;;5069744;28;20884;-63
2022/03/20 11:11:50;;;;;;;26.75;13.77;;;;;;;;;;5069777;28;20131;-63
2022/03/20 11:14:18;;;;;;;29.02;13.50;;;;;;;;;;5069574;28;20172;-63
2022/03/20 11:16:47;;;;;;;27.20;14.07;;;;;;;;;;5069950;28;20144;-63
2022/03/20 11:19:13;;;;;;;;;;;;;;;;;;5069783;28;20499;-63
2022/03/20 11:21:43;;;;;;;28.45;13.88;;;;;;;;;;5068312;28;45667;-63
2022/03/20 11:24:10;;;;;;;23.58;13.73;;;;;;;;;;5070056;28;20084;-63
2022/03/20 11:26:38;;;;;;;27.27;14.80;;;;;;;;;;5069229;28;20052;-63
2022/03/20 11:29:07;;;;;;;24.85;13.90;;;;;;;;;;5069672;28;20052;-63
2022/03/20 11:31:34;;;;;;;28.80;14.60;;;;;;;;;;5069452;28;20151;-63
2022/03/20 11:34:08;;;;;;;27.20;14.20;;;;;;;;;;5069409;28;20055;-63
2022/03/20 11:36:53;;;;;;;28.50;15.13;;;;;;;;;;5069889;28;20315;-63
2022/03/20 11:39:19;;;;;;;29.38;15.68;;;;;;;;;;5069341;28;20060;-63
2022/03/20 11:41:45;;;;;;;29.33;15.77;;;;;;;;;;5069910;28;20525;-63
2022/03/20 11:44:20;;;;;;;22.52;11.80;;;;;;;;;;5069589;28;20139;-63
2022/03/20 11:47:06;;;;;;;30.02;16.58;;;;;;;;;;5069198;28;20501;-63
2022/03/20 11:49:33;;;;;;;25.85;15.43;;;;;;;;;;5069043;28;20160;-63
2022/03/20 11:52:02;;;;;;;32.05;15.80;;;;;;;;;;5069187;28;20049;-63
2022/03/20 11:54:49;;;;;;;27.30;15.43;;;;;;;;;;5068982;28;20053;-63
2022/03/20 11:57:28;;;;;;;28.45;15.48;;;;;;;;;;5069011;28;20107;-63
2022/03/20 11:59:55;;;;;;;32.72;15.80;;;;;;;;;;5069343;28;20059;-63
2022/03/20 12:02:45;;;;;;;30.50;17.17;;;;;;;;;;5068881;28;20554;-63
2022/03/20 12:05:14;;;;;;;30.33;15.75;;;;;;;;;;5068863;28;20610;-63
2022/03/20 12:07:47;;;;;;;30.75;16.42;;;;;;;;;;5069091;28;20068;-63
2022/03/20 12:10:22;;;;;;;37.15;17.38;;;;;;;;;;5068364;28;20500;-63
2022/03/20 12:13:04;;;;;;;28.38;16.90;;;;;;;;;;5068178;28;20061;-63
2022/03/20 12:15:31;;;;;;;33.55;17.48;;;;;;;;;;5069262;28;20579;-63
2022/03/20 12:17:57;;;;;;;32.10;17.23;;;;;;;;;;5069227;28;20057;-63
2022/03/20 12:20:42;;;;;;;27.98;14.38;;;;;;;;;;5068525;28;20063;-63
2022/03/20 12:23:27;;;;;;;36.10;17.08;;;;;;;;;;5068220;28;20107;-63
2022/03/20 12:25:54;;;;;;;31.77;15.60;;;;;;;;;;5068283;28;20519;-63
2022/03/20 12:28:27;;;;;;;31.73;17.70;;;;;;;;;;5069025;28;20155;-63
2022/03/20 12:30:53;;;;;;;28.52;15.77;;;;;;;;;;5067963;28;20053;-63
2022/03/20 12:33:27;;;;;;;26.65;15.18;;;;;;;;;;5069062;28;20057;-63
2022/03/20 12:35:54;;;;;;;28.10;16.10;;;;;;;;;;5068590;28;20061;-63
2022/03/20 12:38:34;;;;;;;31.85;17.85;;;;;;;;;;5068458;28;20080;-63
2022/03/20 12:41:07;;;;;;;29.92;16.77;;;;;;;;;;5068726;28;20512;-64
2022/03/20 12:43:34;;;;;;;29.23;17.40;;;;;;;;;;5068941;28;20053;-63
2022/03/20 12:46:01;;;;;;;31.73;17.08;;;;;;;;;;5068070;28;20430;-64
2022/03/20 12:48:31;;;;;;;30.85;17.73;;;;;;;;;;5068242;28;20068;-64
2022/03/20 12:50:58;;;;;;;28.38;16.17;;;;;;;;;;5068119;28;20053;-64
2022/03/20 12:53:35;;;;;;;30.38;16.00;;;;;;;;;;5067995;28;20057;-64
2022/03/20 12:56:02;;;;;;;29.02;15.63;;;;;;;;;;5068341;28;20499;-64
2022/03/20 12:58:28;;;;;;;29.88;17.65;;;;;;;;;;5068347;28;20063;-64
2022/03/20 13:00:55;;;;;;;33.95;19.75;;;;;;;;;;5067749;28;20554;-64
2022/03/20 13:03:22;;;;;;;32.20;18.27;;;;;;;;;;5067432;28;20101;-63
2022/03/20 13:05:50;;;;;;;31.63;17.67;;;;;;;;;;5068204;28;20079;-64
2022/03/20 13:08:28;;;;;;;31.05;18.35;;;;;;;;;;5067765;28;20060;-63
2022/03/20 13:10:55;;;;;;;;;;;;;;;;;;5068111;28;20059;-63
2022/03/20 13:13:29;;;;;;;29.45;17.90;;;;;;;;;;5066428;28;44456;-64
2022/03/20 13:15:57;;;;;;;35.42;18.35;;;;;;;;;;5067563;28;20178;-63
2022/03/20 13:18:25;;;;;;;31.42;17.88;;;;;;;;;;5067918;28;20522;-63
2022/03/20 13:20:52;;;;;;;31.20;17.23;;;;;;;;;;5067799;28;20056;-64
2022/03/20 13:23:20;;;;;;;32.70;19.20;;;;;;;;;;5067795;28;20084;-64
2022/03/20 13:25:49;;;;;;;31.27;18.55;;;;;;;;;;5067826;28;20073;-64
2022/03/20 13:28:20;;;;;;;38.70;18.03;;;;;;;;;;5067319;28;20507;-63
2022/03/20 13:30:48;;;;;;;32.70;17.67;;;;;;;;;;5067796;28;20053;-63
2022/03/20 13:33:26;;;;;;;32.50;18.50;;;;;;;;;;5067761;28;20078;-63
2022/03/20 13:35:54;;;;;;;29.77;16.95;;;;;;;;;;5068283;28;20056;-63
2022/03/20 13:38:20;;;;;;;31.58;18.05;;;;;;;;;;5067675;28;20049;-63
2022/03/20 13:40:46;;;;;;;34.90;17.17;;;;;;;;;;5067707;28;20061;-63
2022/03/20 13:43:20;;;;;;;30.77;17.15;;;;;;;;;;5066996;28;20056;-63
2022/03/20 13:45:47;;;;;;;33.88;17.05;;;;;;;;;;5067274;28;20103;-63
2022/03/20 13:48:13;;;;;;;33.17;18.25;;;;;;;;;;5066881;28;20075;-64
2022/03/20 13:50:40;;;;;;;40.05;18.50;;;;;;;;;;5067519;28;20551;-64
2022/03/20 13:53:26;;;;;;;36.28;18.38;;;;;;;;;;5067269;28;20049;-64
2022/03/20 13:55:57;;;;;;;36.58;19.42;;;;;;;;;;5067675;28;20491;-64
2022/03/20 13:58:23;;;;;;;36.25;18.58;;;;;;;;;;5066432;28;20055;-64
2022/03/20 14:00:58;;;;;;;35.38;17.77;;;;;;;;;;5067652;28;20085;-64
2022/03/20 14:03:30;;;;;;;32.78;17.83;;;;;;;;;;5067895;28;20698;-64
2022/03/20 14:05:57;;;;;;;29.95;16.98;;;;;;;;;;5066245;28;20052;-65
2022/03/20 14:08:26;;;;;;;31.25;18.63;;;;;;;;;;5067244;28;20057;-64
2022/03/20 14:10:56;;;;;;;35.67;17.95;;;;;;;;;;5066827;28;20049;-64
2022/03/20 14:13:23;;;;;;;33.00;18.50;;;;;;;;;;5066585;28;20140;-65
2022/03/20 14:15:53;;;;;;;34.58;17.30;;;;;;;;;;5067288;28;20614;-64
2022/03/20 14:18:20;;;;;;;30.55;17.27;;;;;;;;;;5066242;28;20375;-64
2022/03/20 14:20:46;;;;;;;32.22;17.67;;;;;;;;;;5067712;28;20053;-64
2022/03/20 14:23:12;;;;;;;34.55;18.30;;;;;;;;;;5067099;28;20059;-64
2022/03/20 14:25:42;;;;;;;31.35;16.17;;;;;;;;;;5067436;28;20197;-64
2022/03/20 14:28:08;;;;;;;32.67;16.17;;;;;;;;;;5066002;28;20486;-64
2022/03/20 14:41:36;;;;;;;28.40;15.35;;;;;;;;;;5066828;28;20107;-64
2022/03/20 14:44:03;;;;;;;25.67;15.25;;;;;;;;;;5066044;28;20139;-64
2022/03/20 14:46:29;;;;;;;26.20;15.25;;;;;;;;;;5066803;28;20144;-64
2022/03/20 14:48:56;;;;;;;25.00;14.07;;;;;;;;;;5066958;28;20139;-64
2022/03/20 14:51:23;;;;;;;30.25;14.77;;;;;;;;;;5065914;28;20059;-64
2022/03/20 14:53:49;;;;;;;26.90;14.65;;;;;;;;;;5066634;28;20094;-64
2022/03/20 14:56:16;;;;;;;24.25;13.05;;;;;;;;;;5066585;28;20053;-64
2022/03/20 14:58:45;;;;;;;19.77;10.65;;;;;;;;;;5066305;28;20056;-65
2022/03/20 15:01:11;;;;;;;23.17;11.75;;;;;;;;;;5066659;28;20068;-64
2022/03/20 15:03:38;;;;;;;22.35;12.32;;;;;;;;;;5067212;28;20053;-64
2022/03/20 15:06:05;;;;;;;24.08;13.07;;;;;;;;;;5067052;28;20065;-64
2022/03/20 15:11:29;;;;;;;19.88;12.10;;;;;;;;;;5069575;28;20160;-65
2022/03/20 15:13:56;;;;;;;25.92;13.60;;;;;;;;;;5069578;28;20080;-65
2022/03/20 15:16:24;;;;;;;23.95;12.88;;;;;;;;;;5069592;28;20525;-64
2022/03/20 15:18:51;;;;;;;23.20;13.25;;;;;;;;;;5069683;28;20057;-64
2022/03/20 15:21:18;;;;;;;20.85;13.48;;;;;;;;;;5069720;28;20052;-65
2022/03/20 15:23:45;;;;;;;24.33;13.98;;;;;;;;;;5069967;28;20049;-66